Time;durP1;ratioP1;P1;durP2;ratioP2;P2;SDS_P1;SDS_P2;PMS_P1;PMS_P2;Temp;Humidity;BMP_temperature;BMP_pressure;BME280_temperature;BME280_humidity;BME280_pressure;Samples;Min_cycle;Max_cycle;Signal;HPM_P1;HPM_P2
2024/03/20 00:00:28;;;;;;;;;;;6.00;99.90;;;;;;5034101;28;20292;-56
2024/03/20 00:02:53;;;;;;;;;;;6.00;99.90;;;;;;5043313;28;19912;-55
2024/03/20 00:05:19;;;;;;;;;;;5.90;99.90;;;;;;5043276;28;20019;-54
2024/03/20 00:07:45;;;;;;;;;;;6.00;99.90;;;;;;5043590;28;19913;-57
2024/03/20 00:10:13;;;;;;;;;;;6.00;99.90;;;;;;5042803;28;19916;-56
2024/03/20 00:12:39;;;;;;;;;;;6.00;99.90;;;;;;5024040;28;19916;-52
2024/03/20 00:15:06;;;;;;;;;;;6.10;99.90;;;;;;5039810;28;19924;-52
2024/03/20 00:17:31;;;;;;;;;;;6.10;99.90;;;;;;5031485;28;19921;-55
2024/03/20 00:19:57;;;;;;;;;;;6.10;99.90;;;;;;5037200;28;20397;-55
2024/03/20 00:22:22;;;;;;;;;;;6.10;99.90;;;;;;5034692;28;19913;-53
2024/03/20 00:24:48;;;;;;;;;;;6.20;99.90;;;;;;5046103;28;19916;-52
2024/03/20 00:27:13;;;;;;;;;;;6.30;99.90;;;;;;5031002;28;20180;-54
2024/03/20 00:29:39;;;;;;;;;;;6.30;99.90;;;;;;5030758;28;19924;-53
2024/03/20 00:32:05;;;;;;;;;;;6.30;99.90;;;;;;5039229;28;20357;-56
2024/03/20 00:34:30;;;;;;;;;;;6.30;99.90;;;;;;5041731;28;20108;-52
2024/03/20 00:36:56;;;;;;;;;;;6.40;99.90;;;;;;5036626;28;20369;-53
2024/03/20 00:39:23;;;;;;;;;;;6.40;99.90;;;;;;5038538;28;19947;-53
2024/03/20 00:41:49;;;;;;;;;;;6.40;99.90;;;;;;5031019;28;20015;-53
2024/03/20 00:44:14;;;;;;;;;;;6.40;99.90;;;;;;5030973;28;20012;-52
2024/03/20 00:46:39;;;;;;;;;;;6.40;99.90;;;;;;5038756;28;19931;-52
2024/03/20 00:49:06;;;;;;;;;;;6.40;99.90;;;;;;5030304;28;19917;-52
2024/03/20 00:51:32;;;;;;;;;;;6.50;99.90;;;;;;5041927;28;19925;-55
2024/03/20 00:53:57;;;;;;;;;;;6.50;99.90;;;;;;5036933;28;19916;-55
2024/03/20 00:56:24;;;;;;;;;;;6.50;99.90;;;;;;5038388;28;19913;-54
2024/03/20 00:58:49;;;;;;;;;;;6.40;99.90;;;;;;5030387;28;19921;-52
2024/03/20 01:01:15;;;;;;;;;;;6.50;99.90;;;;;;5030375;28;20024;-55
2024/03/20 01:03:41;;;;;;;;;;;6.50;99.90;;;;;;5030568;28;19952;-53
2024/03/20 01:06:06;;;;;;;;;;;6.50;99.90;;;;;;5030897;28;19917;-51
2024/03/20 01:08:31;;;;;;;;;;;6.50;99.90;;;;;;5032399;28;19937;-55
2024/03/20 01:10:57;;;;;;;;;;;6.50;99.90;;;;;;5035947;28;20003;-55
2024/03/20 01:13:22;;;;;;;;;;;6.50;99.90;;;;;;5039949;28;20284;-52
2024/03/20 01:15:48;;;;;;;;;;;6.40;99.90;;;;;;5041876;28;19954;-52
2024/03/20 01:18:16;;;;;;;;;;;6.50;99.90;;;;;;5032456;28;19913;-52
2024/03/20 01:20:42;;;;;;;;;;;6.50;99.90;;;;;;5030443;28;20295;-52
2024/03/20 01:23:07;;;;;;;;;;;6.60;99.90;;;;;;5038588;28;20000;-54
2024/03/20 01:25:33;;;;;;;;;;;6.60;99.90;;;;;;5029595;28;20011;-54
2024/03/20 01:27:58;;;;;;;;;;;6.60;99.90;;;;;;5038441;28;19917;-52
2024/03/20 01:30:24;;;;;;;;;;;6.50;99.90;;;;;;5037838;28;20381;-52
2024/03/20 01:32:49;;;;;;;;;;;6.50;99.90;;;;;;5030117;28;19936;-54
2024/03/20 01:35:15;;;;;;;;;;;6.50;99.90;;;;;;5030154;28;20080;-52
2024/03/20 01:37:40;;;;;;;;;;;6.50;99.90;;;;;;5038276;28;19913;-51
2024/03/20 01:40:06;;;;;;;;;;;6.50;99.90;;;;;;5029733;28;19917;-52
2024/03/20 01:42:31;;;;;;;;;;;6.50;99.90;;;;;;5029766;28;20300;-55
2024/03/20 01:45:12;;;;;;;;;;;6.50;99.90;;;;;;5030058;28;19967;-51
2024/03/20 01:47:38;;;;;;;;;;;6.50;99.90;;;;;;5038073;28;19968;-52
2024/03/20 01:50:03;;;;;;;;;;;6.50;99.90;;;;;;5029504;28;19948;-52
2024/03/20 01:52:29;;;;;;;;;;;6.50;99.90;;;;;;5029869;28;19947;-55
2024/03/20 01:54:54;;;;;;;;;;;6.60;99.90;;;;;;5030139;28;19913;-54
2024/03/20 01:57:20;;;;;;;;;;;6.60;99.90;;;;;;5029584;28;20441;-54
2024/03/20 01:59:45;;;;;;;;;;;6.60;99.90;;;;;;5029430;28;19917;-51
2024/03/20 02:02:11;;;;;;;;;;;6.60;99.90;;;;;;5038085;28;20004;-54
2024/03/20 02:04:36;;;;;;;;;;;6.70;99.90;;;;;;5037948;28;20381;-59
2024/03/20 02:07:02;;;;;;;;;;;6.70;99.90;;;;;;5029729;28;20020;-57
2024/03/20 02:09:27;;;;;;;;;;;6.70;99.90;;;;;;5037467;28;19960;-58
2024/03/20 02:11:53;;;;;;;;;;;6.70;99.90;;;;;;5030012;28;19948;-60
2024/03/20 02:14:18;;;;;;;;;;;6.70;99.90;;;;;;5029617;28;20377;-59
2024/03/20 02:16:43;;;;;;;;;;;6.70;99.90;;;;;;5033849;28;20344;-59
2024/03/20 02:19:09;;;;;;;;;;;6.70;99.90;;;;;;5033248;28;19917;-58
2024/03/20 02:21:34;;;;;;;;;;;6.70;99.90;;;;;;5029564;28;19917;-61
2024/03/20 02:24:05;;;;;;;;;;;6.70;99.90;;;;;;5029758;28;20373;-61
2024/03/20 02:26:30;;;;;;;;;;;6.80;99.90;;;;;;5029389;28;20377;-59
2024/03/20 02:28:56;;;;;;;;;;;6.70;99.90;;;;;;5030730;28;19924;-59
2024/03/20 02:31:21;;;;;;;;;;;6.60;99.90;;;;;;5041725;28;20470;-59
2024/03/20 02:33:47;;;;;;;;;;;6.70;99.90;;;;;;5033704;28;19917;-61
2024/03/20 02:36:12;;;;;;;;;;;6.70;99.90;;;;;;5033539;28;19917;-60
2024/03/20 02:38:38;;;;;;;;;;;6.80;99.90;;;;;;5032879;28;20004;-61
2024/03/20 02:41:04;;;;;;;;;;;6.70;99.90;;;;;;5048582;28;20009;-61
2024/03/20 02:43:30;;;;;;;;;;;6.70;99.90;;;;;;5042728;28;19917;-60
2024/03/20 02:45:55;;;;;;;;;;;6.70;99.90;;;;;;5038921;28;19921;-61
2024/03/20 02:48:21;;;;;;;;;;;6.80;99.90;;;;;;5042947;28;20364;-60
2024/03/20 02:50:47;;;;;;;;;;;6.80;99.90;;;;;;5033204;28;19923;-59
2024/03/20 02:53:13;;;;;;;;;;;6.70;99.90;;;;;;5033118;28;19917;-61
2024/03/20 02:55:39;;;;;;;;;;;6.70;99.90;;;;;;5033302;28;19909;-61
2024/03/20 02:58:05;;;;;;;;;;;6.70;99.90;;;;;;5032537;28;19909;-60
2024/03/20 03:00:31;;;;;;;;;;;6.70;99.90;;;;;;5041174;28;19913;-60
2024/03/20 03:02:57;;;;;;;;;;;6.70;99.90;;;;;;5033060;28;19913;-59
2024/03/20 03:05:24;;;;;;;;;;;6.70;99.90;;;;;;5041127;28;19909;-60
2024/03/20 03:07:50;;;;;;;;;;;6.60;99.90;;;;;;5037829;28;19970;-61
2024/03/20 03:10:15;;;;;;;;;;;6.60;99.90;;;;;;5044063;28;19912;-60
2024/03/20 03:12:48;;;;;;;;;;;6.60;99.90;;;;;;5041171;28;19916;-60
2024/03/20 03:15:13;;;;;;;;;;;6.60;99.90;;;;;;5032756;28;19921;-60
2024/03/20 03:17:40;;;;;;;;;;;6.60;99.90;;;;;;5032629;28;19913;-60
2024/03/20 03:20:06;;;;;;;;;;;6.60;99.90;;;;;;5032426;28;20361;-60
2024/03/20 03:22:32;;;;;;;;;;;6.60;99.90;;;;;;5041044;28;19928;-60
2024/03/20 03:24:57;;;;;;;;;;;6.60;99.90;;;;;;5032604;28;19933;-59
2024/03/20 03:27:23;;;;;;;;;;;6.60;99.90;;;;;;5032319;28;19939;-61
2024/03/20 03:29:48;;;;;;;;;;;6.60;99.90;;;;;;5032033;28;19909;-60
2024/03/20 03:32:14;;;;;;;;;;;6.70;99.90;;;;;;5032339;28;19913;-58
2024/03/20 03:34:39;;;;;;;;;;;6.60;99.90;;;;;;5035975;28;20335;-59
2024/03/20 03:37:05;;;;;;;;;;;6.50;99.90;;;;;;5052416;28;20376;-59
2024/03/20 03:39:30;;;;;;;;;;;6.50;99.90;;;;;;5040836;28;20342;-59
2024/03/20 03:41:56;;;;;;;;;;;6.50;99.90;;;;;;5046167;28;19924;-60
2024/03/20 03:44:21;;;;;;;;;;;6.60;99.90;;;;;;5042748;28;20385;-61
2024/03/20 03:46:46;;;;;;;;;;;6.60;99.90;;;;;;5022051;28;19975;-58
2024/03/20 03:49:12;;;;;;;;;;;6.60;99.90;;;;;;5031685;28;19913;-61
2024/03/20 03:51:38;;;;;;;;;;;6.70;99.90;;;;;;5032127;28;19917;-61
2024/03/20 03:54:04;;;;;;;;;;;6.70;99.90;;;;;;5038973;28;20366;-60
2024/03/20 03:56:29;;;;;;;;;;;6.70;99.90;;;;;;5049598;28;20392;-56
2024/03/20 03:58:55;;;;;;;;;;;6.70;99.90;;;;;;5031399;28;19923;-57
2024/03/20 04:01:21;;;;;;;;;;;6.70;99.90;;;;;;5039874;28;20396;-58
2024/03/20 04:03:47;;;;;;;;;;;6.60;99.90;;;;;;5031838;28;19960;-59
2024/03/20 04:06:12;;;;;;;;;;;6.60;99.90;;;;;;5032180;28;20027;-61
2024/03/20 04:08:38;;;;;;;;;;;6.60;99.90;;;;;;5039080;28;20412;-57
2024/03/20 04:11:04;;;;;;;;;;;6.60;99.90;;;;;;5031705;28;20016;-57
2024/03/20 04:13:30;;;;;;;;;;;6.60;99.90;;;;;;5031514;28;19924;-57
2024/03/20 04:15:56;;;;;;;;;;;6.50;99.90;;;;;;5031377;28;19913;-59
2024/03/20 04:18:21;;;;;;;;;;;6.50;99.90;;;;;;5030581;28;19978;-59
2024/03/20 04:20:46;;;;;;;;;;;6.40;99.90;;;;;;5044113;28;20376;-57
2024/03/20 04:23:12;;;;;;;;;;;6.30;99.90;;;;;;5035360;28;19913;-60
2024/03/20 04:25:39;;;;;;;;;;;6.40;99.90;;;;;;5039449;28;20615;-58
2024/03/20 04:28:05;;;;;;;;;;;6.30;99.90;;;;;;5030410;28;19952;-59
2024/03/20 04:30:30;;;;;;;;;;;6.40;99.90;;;;;;5031152;28;19959;-58
2024/03/20 04:32:56;;;;;;;;;;;6.40;99.90;;;;;;5031072;28;20417;-58
2024/03/20 04:35:22;;;;;;;;;;;6.50;99.90;;;;;;5031211;28;19954;-60
2024/03/20 04:37:47;;;;;;;;;;;6.50;99.90;;;;;;5039402;28;20270;-60
2024/03/20 04:40:12;;;;;;;;;;;6.50;99.90;;;;;;5038976;28;19940;-58
2024/03/20 04:42:38;;;;;;;;;;;6.50;99.90;;;;;;5030948;28;19917;-60
2024/03/20 04:45:04;;;;;;;;;;;6.50;99.90;;;;;;5030917;28;19913;-60
2024/03/20 04:47:30;;;;;;;;;;;6.50;99.90;;;;;;5030330;28;19929;-57
2024/03/20 04:49:55;;;;;;;;;;;6.40;99.90;;;;;;5038883;28;19917;-61
2024/03/20 04:52:21;;;;;;;;;;;6.40;99.90;;;;;;5030671;28;20354;-60
2024/03/20 04:54:46;;;;;;;;;;;6.20;99.90;;;;;;5038176;28;19913;-60
2024/03/20 04:57:12;;;;;;;;;;;6.20;99.90;;;;;;5046705;28;19974;-60
2024/03/20 04:59:37;;;;;;;;;;;6.10;99.90;;;;;;5030415;28;19971;-58
2024/03/20 05:02:03;;;;;;;;;;;6.10;99.90;;;;;;5030506;28;19917;-59
2024/03/20 05:04:28;;;;;;;;;;;6.00;99.90;;;;;;5046959;28;20369;-56
2024/03/20 05:06:54;;;;;;;;;;;6.00;99.90;;;;;;5035994;28;19921;-59
2024/03/20 05:09:19;;;;;;;;;;;5.90;99.90;;;;;;5040983;28;19917;-60
2024/03/20 05:11:45;;;;;;;;;;;5.80;99.90;;;;;;5034682;28;19919;-58
2024/03/20 05:14:10;;;;;;;;;;;5.70;99.90;;;;;;5034634;28;19917;-60
2024/03/20 05:16:36;;;;;;;;;;;5.70;99.90;;;;;;5029871;28;19913;-60
2024/03/20 05:19:01;;;;;;;;;;;5.60;99.90;;;;;;5030004;28;19920;-60
2024/03/20 05:21:27;;;;;;;;;;;5.60;99.90;;;;;;5030252;28;19909;-61
2024/03/20 05:23:52;;;;;;;;;;;5.50;99.90;;;;;;5043729;28;19913;-60
2024/03/20 05:26:18;;;;;;;;;;;5.50;99.90;;;;;;5033043;28;20289;-59
2024/03/20 05:28:43;;;;;;;;;;;5.50;99.90;;;;;;5023716;28;19921;-61
2024/03/20 05:31:24;;;;;;;;;;;5.40;99.90;;;;;;5041951;28;20452;-60
2024/03/20 05:33:49;;;;;;;;;;;5.30;99.90;;;;;;5037326;28;19948;-61
2024/03/20 05:36:15;;;;;;;;;;;5.30;99.90;;;;;;5030097;28;20412;-60
2024/03/20 05:38:40;;;;;;;;;;;5.30;99.90;;;;;;5032930;28;19917;-59
2024/03/20 05:41:06;;;;;;;;;;;5.30;99.90;;;;;;5034969;28;19917;-59
2024/03/20 05:43:31;;;;;;;;;;;5.30;99.90;;;;;;5037369;28;19917;-59
2024/03/20 05:45:56;;;;;;;;;;;5.40;99.90;;;;;;5028894;28;20297;-59
2024/03/20 05:48:22;;;;;;;;;;;5.20;99.90;;;;;;5029515;28;19944;-58
2024/03/20 05:50:47;;;;;;;;;;;5.20;99.90;;;;;;5041106;28;19916;-59
2024/03/20 05:53:13;;;;;;;;;;;5.20;99.90;;;;;;5033192;28;19917;-60
2024/03/20 05:55:39;;;;;;;;;;;5.10;99.90;;;;;;5040581;28;20335;-60
2024/03/20 05:58:05;;;;;;;;;;;5.00;99.90;;;;;;5025593;28;19917;-58
2024/03/20 06:00:31;;;;;;;;;;;5.00;99.90;;;;;;5028155;28;20274;-60
2024/03/20 06:02:57;;;;;;;;;;;5.00;99.90;;;;;;5013073;28;19929;-60
2024/03/20 06:05:22;;;;;;;;;;;5.10;99.90;;;;;;5033118;28;19917;-60
2024/03/20 06:07:48;;;;;;;;;;;5.10;99.90;;;;;;5037597;28;20303;-59
2024/03/20 06:10:13;;;;;;;;;;;5.10;99.90;;;;;;5036452;28;19944;-60
2024/03/20 06:12:39;;;;;;;;;;;5.20;99.90;;;;;;5033133;28;19917;-60
2024/03/20 06:15:05;;;;;;;;;;;5.30;99.90;;;;;;5041663;28;20344;-60
2024/03/20 06:17:32;;;;;;;;;;;5.40;99.90;;;;;;5041374;28;20007;-59
2024/03/20 06:19:58;;;;;;;;;;;5.50;99.90;;;;;;5032966;28;20381;-58
2024/03/20 06:22:24;;;;;;;;;;;5.60;99.90;;;;;;5033302;28;19914;-60
2024/03/20 06:24:49;;;;;;;;;;;5.70;99.90;;;;;;5033152;28;20488;-57
2024/03/20 06:27:15;;;;;;;;;;;5.80;99.90;;;;;;5041066;28;19962;-60
2024/03/20 06:29:42;;;;;;;;;;;6.00;99.90;;;;;;5040595;28;19917;-57
2024/03/20 06:32:07;;;;;;;;;;;6.10;99.90;;;;;;5041182;28;19914;-60
2024/03/20 06:34:33;;;;;;;;;;;6.10;99.90;;;;;;5040138;28;19924;-59
2024/03/20 06:36:58;;;;;;;;;;;6.30;99.90;;;;;;5032610;28;19917;-58
2024/03/20 06:39:24;;;;;;;;;;;6.40;99.90;;;;;;5040411;28;19913;-59
2024/03/20 06:41:49;;;;;;;;;;;6.40;99.90;;;;;;5032686;28;19916;-59
2024/03/20 06:44:17;;;;;;;;;;;6.50;99.90;;;;;;5040570;28;19919;-58
2024/03/20 06:46:43;;;;;;;;;;;6.70;99.90;;;;;;5032427;28;19932;-57
2024/03/20 06:49:11;;;;;;;;;;;6.80;99.90;;;;;;5040595;28;20347;-58
2024/03/20 06:51:38;;;;;;;;;;;6.90;99.90;;;;;;5034898;28;19987;-58
2024/03/20 06:54:11;;;;;;;;;;;7.00;99.90;;;;;;5044321;28;19912;-60
2024/03/20 06:56:36;;;;;;;;;;;7.20;99.90;;;;;;5041099;28;20040;-60
2024/03/20 06:59:02;;;;;;;;;;;7.40;99.90;;;;;;5040111;28;19948;-54
2024/03/20 07:01:28;;;;;;;;;;;7.60;99.90;;;;;;5040542;28;19960;-51
2024/03/20 07:03:54;;;;;;;;;;;7.80;99.90;;;;;;5045470;28;19909;-55
2024/03/20 07:06:19;;;;;;;;;;;7.80;99.90;;;;;;5034848;28;19967;-54
2024/03/20 07:08:45;;;;;;;;;;;7.90;99.90;;;;;;5039897;28;19913;-51
2024/03/20 07:11:11;;;;;;;;;;;8.20;99.90;;;;;;5039383;28;19917;-53
2024/03/20 07:13:36;;;;;;;;;;;8.20;99.90;;;;;;5035407;28;19963;-55
2024/03/20 07:16:02;;;;;;;;;;;8.40;99.90;;;;;;5030967;28;20024;-55
2024/03/20 07:18:27;;;;;;;;;;;8.70;99.90;;;;;;5029597;28;19917;-56
2024/03/20 07:20:53;;;;;;;;;;;8.90;99.90;;;;;;5040139;28;19924;-55
2024/03/20 07:23:19;;;;;;;;;;;9.10;99.90;;;;;;5040077;28;20000;-52
2024/03/20 07:25:44;;;;;;;;;;;9.30;99.90;;;;;;5031230;28;20273;-55
2024/03/20 07:28:12;;;;;;;;;;;9.60;99.90;;;;;;5046490;28;19929;-58
2024/03/20 07:30:38;;;;;;;;;;;9.80;99.90;;;;;;5032293;28;19917;-56
2024/03/20 07:33:03;;;;;;;;;;;9.90;99.90;;;;;;5031350;28;19921;-53
2024/03/20 07:35:40;;;;;;;;;;;10.10;99.90;;;;;;5031415;28;19916;-57
2024/03/20 07:38:09;;;;;;;;;;;10.40;99.90;;;;;;5030653;28;19913;-58
2024/03/20 07:40:35;;;;;;;;;;;10.50;99.90;;;;;;5041978;28;20382;-53
2024/03/20 07:43:01;;;;;;;;;;;10.70;99.90;;;;;;5051446;28;20006;-56
2024/03/20 07:45:26;;;;;;;;;;;10.80;99.90;;;;;;5041427;28;20273;-54
2024/03/20 07:47:52;;;;;;;;;;;10.80;99.90;;;;;;5044231;28;19920;-55
2024/03/20 07:50:17;;;;;;;;;;;10.90;99.90;;;;;;5034208;28;20031;-59
2024/03/20 07:52:43;;;;;;;;;;;11.10;99.90;;;;;;5031312;28;19917;-59
2024/03/20 07:55:09;;;;;;;;;;;11.50;99.90;;;;;;5031460;28;19916;-60
2024/03/20 07:57:34;;;;;;;;;;;11.90;99.90;;;;;;5033168;28;19916;-59
2024/03/20 08:00:00;;;;;;;;;;;12.20;99.90;;;;;;5036475;28;19940;-59
2024/03/20 08:02:25;;;;;;;;;;;12.30;99.90;;;;;;5047966;28;19952;-60
2024/03/20 08:04:51;;;;;;;;;;;12.60;99.90;;;;;;5050854;28;19921;-58
2024/03/20 08:07:16;;;;;;;;;;;13.00;99.90;;;;;;5042276;28;20373;-57
2024/03/20 08:09:43;;;;;;;;;;;13.10;99.90;;;;;;5050305;28;20050;-59
2024/03/20 08:12:09;;;;;;;;;;;13.20;99.90;;;;;;5043655;28;19913;-60
2024/03/20 08:14:34;;;;;;;;;;;13.40;99.90;;;;;;5038780;28;19913;-58
2024/03/20 08:17:00;;;;;;;;;;;13.60;99.90;;;;;;5038393;28;19917;-59
2024/03/20 08:19:25;;;;;;;;;;;14.00;99.90;;;;;;5046265;28;19913;-59
2024/03/20 08:21:51;;;;;;;;;;;14.30;99.90;;;;;;5039096;28;19963;-57
2024/03/20 08:24:16;;;;;;;;;;;14.40;99.90;;;;;;5038200;28;19960;-59
2024/03/20 08:26:42;;;;;;;;;;;14.60;99.90;;;;;;5032315;28;19970;-60
2024/03/20 08:29:08;;;;;;;;;;;14.90;99.90;;;;;;5042947;28;19917;-59
2024/03/20 08:31:33;;;;;;;;;;;15.00;99.90;;;;;;5032291;28;20408;-59
2024/03/20 08:33:59;;;;;;;;;;;15.20;99.90;;;;;;5036153;28;20004;-60
2024/03/20 08:36:24;;;;;;;;;;;14.90;99.90;;;;;;5038025;28;19925;-60
2024/03/20 08:38:50;;;;;;;;;;;14.80;99.90;;;;;;5029595;28;20365;-59
2024/03/20 08:41:16;;;;;;;;;;;15.10;99.90;;;;;;5030245;28;19917;-60
2024/03/20 08:43:42;;;;;;;;;;;15.60;99.90;;;;;;5030111;28;19967;-60
2024/03/20 08:46:10;;;;;;;;;;;15.90;99.90;;;;;;5037953;28;19959;-59
2024/03/20 08:48:36;;;;;;;;;;;16.00;99.90;;;;;;5045548;28;19920;-59
2024/03/20 08:51:02;;;;;;;;;;;16.20;99.90;;;;;;5029902;28;19913;-60
2024/03/20 08:53:29;;;;;;;;;;;16.30;99.90;;;;;;5030010;28;20004;-59
2024/03/20 08:55:55;;;;;;;;;;;16.20;99.90;;;;;;5043198;28;19966;-60
2024/03/20 08:58:21;;;;;;;;;;;16.40;99.90;;;;;;5031780;28;20327;-59
2024/03/20 09:00:46;;;;;;;;;;;16.80;99.90;;;;;;5033674;28;19917;-58
2024/03/20 09:03:12;;;;;;;;;;;17.00;99.90;;;;;;5041278;28;19964;-60
2024/03/20 09:05:39;;;;;;;;;;;17.40;99.90;;;;;;5038157;28;19913;-60
2024/03/20 09:08:05;;;;;;;;;;;18.00;99.90;;;;;;5042982;28;19928;-60
2024/03/20 09:10:31;;;;;;;;;;;18.40;99.90;;;;;;5031236;28;19929;-57
2024/03/20 09:12:56;;;;;;;;;;;18.70;99.90;;;;;;5037510;28;19913;-59
2024/03/20 09:15:22;;;;;;;;;;;18.80;99.90;;;;;;5029188;28;19963;-58
2024/03/20 09:17:49;;;;;;;;;;;19.00;99.90;;;;;;5029282;28;20205;-59
2024/03/20 09:20:19;;;;;;;;;;;19.00;99.90;;;;;;5028744;28;20016;-59
2024/03/20 09:22:49;;;;;;;;;;;19.30;99.90;;;;;;5025256;28;19916;-59
2024/03/20 09:25:15;;;;;;;;;;;19.50;99.90;;;;;;5041279;28;19928;-58
2024/03/20 09:27:40;;;;;;;;;;;19.80;99.90;;;;;;5037154;28;20282;-59
2024/03/20 09:30:06;;;;;;;;;;;19.80;99.90;;;;;;5036936;28;19919;-59
2024/03/20 09:32:32;;;;;;;;;;;19.70;99.90;;;;;;5037025;28;20381;-60
2024/03/20 09:35:00;;;;;;;;;;;19.90;99.90;;;;;;5037234;28;20178;-58
2024/03/20 09:37:26;;;;;;;;;;;19.80;99.90;;;;;;5028381;28;19921;-59
2024/03/20 09:39:53;;;;;;;;;;;20.00;99.90;;;;;;5032958;28;19913;-59
2024/03/20 09:42:19;;;;;;;;;;;20.40;99.90;;;;;;5031749;28;19932;-59
2024/03/20 09:44:45;;;;;;;;;;;20.60;99.90;;;;;;5032462;28;19974;-57
2024/03/20 09:47:10;;;;;;;;;;;20.90;99.90;;;;;;5033114;28;20284;-59
2024/03/20 09:49:38;;;;;;;;;;;20.60;99.90;;;;;;5038479;28;22134;-60
2024/03/20 09:52:04;;;;;;;;;;;20.90;99.90;;;;;;5042777;28;20008;-58
2024/03/20 09:54:29;;;;;;;;;;;21.20;99.90;;;;;;5028592;28;19917;-61
2024/03/20 09:56:55;;;;;;;;;;;21.60;99.90;;;;;;5041794;28;20277;-61
2024/03/20 09:59:20;;;;;;;;;;;21.90;99.90;;;;;;5031552;28;19944;-60
2024/03/20 10:01:46;;;;;;;;;;;22.00;99.90;;;;;;5028786;28;19944;-62
2024/03/20 10:04:11;;;;;;;;;;;21.90;99.90;;;;;;5028767;28;19923;-62
2024/03/20 10:06:37;;;;;;;;;;;22.00;99.90;;;;;;5044701;28;20325;-60
2024/03/20 10:09:09;;;;;;;;;;;22.10;99.90;;;;;;5028364;28;19992;-62
2024/03/20 10:11:35;;;;;;;;;;;22.30;99.90;;;;;;5028510;28;19996;-62
2024/03/20 10:14:00;;;;;;;;;;;22.60;99.90;;;;;;5034453;28;20011;-61
2024/03/20 10:16:28;;;;;;;;;;;22.90;99.90;;;;;;5038972;28;19959;-58
2024/03/20 10:18:54;;;;;;;;;;;22.80;99.90;;;;;;5028188;28;19913;-60
2024/03/20 10:21:19;;;;;;;;;;;22.60;99.90;;;;;;5036720;28;19952;-58
2024/03/20 10:23:45;;;;;;;;;;;22.50;99.90;;;;;;5032262;28;19920;-61
2024/03/20 10:26:14;;;;;;;;;;;22.80;99.90;;;;;;5033049;28;20579;-61
2024/03/20 10:28:40;;;;;;;;;;;22.70;99.90;;;;;;5027726;28;19944;-60
2024/03/20 10:31:07;;;;;;;;;;;22.70;99.90;;;;;;5035330;28;20357;-60
2024/03/20 10:33:34;;;;;;;;;;;22.60;99.90;;;;;;5029950;28;19916;-61
2024/03/20 10:36:00;;;;;;;;;;;22.10;99.90;;;;;;5036746;28;19949;-61
2024/03/20 10:38:27;;;;;;;;;;;22.10;99.90;;;;;;5027595;28;19917;-59
2024/03/20 10:40:52;;;;;;;;;;;22.50;99.90;;;;;;5033024;28;19913;-61
2024/03/20 10:43:19;;;;;;;;;;;22.60;99.90;;;;;;5032111;28;20293;-59
2024/03/20 10:45:45;;;;;;;;;;;23.20;99.90;;;;;;5036685;28;19931;-57
2024/03/20 10:48:12;;;;;;;;;;;23.60;99.90;;;;;;5035868;28;19956;-60
2024/03/20 10:50:38;;;;;;;;;;;23.60;99.90;;;;;;5012776;28;19914;-60
2024/03/20 10:53:03;;;;;;;;;;;23.60;99.90;;;;;;5040142;28;19943;-61
2024/03/20 10:55:29;;;;;;;;;;;22.90;99.90;;;;;;5040127;28;19955;-59
2024/03/20 10:57:56;;;;;;;;;;;22.40;99.90;;;;;;5031913;28;19935;-60
2024/03/20 11:00:24;;;;;;;;;;;22.20;99.90;;;;;;5039730;28;19913;-61
2024/03/20 11:02:49;;;;;;;;;;;22.30;99.90;;;;;;5047659;28;20288;-59
2024/03/20 11:05:33;;;;;;;;;;;22.30;99.90;;;;;;5031840;28;20008;-61
2024/03/20 11:07:59;;;;;;;;;;;22.20;99.90;;;;;;5039895;28;20381;-61
2024/03/20 11:10:27;;;;;;;;;;;22.40;99.90;;;;;;5039210;28;20099;-59
2024/03/20 11:12:55;;;;;;;;;;;22.50;99.90;;;;;;5044404;28;20220;-59
2024/03/20 11:15:24;;;;;;;;;;;22.30;99.90;;;;;;5051108;28;19993;-59
2024/03/20 11:17:52;;;;;;;;;;;22.10;99.90;;;;;;5035212;28;20296;-58
2024/03/20 11:20:39;;;;;;;;;;;21.70;99.90;;;;;;5034833;28;19909;-60
2024/03/20 11:23:05;;;;;;;;;;;21.80;99.90;;;;;;5037501;28;20324;-61
2024/03/20 11:25:33;;;;;;;;;;;22.20;99.90;;;;;;5032496;28;19921;-59
2024/03/20 11:27:59;;;;;;;;;;;22.20;99.90;;;;;;5036422;28;19966;-60
2024/03/20 11:30:24;;;;;;;;;;;22.20;99.90;;;;;;5033426;28;19913;-60
2024/03/20 11:32:50;;;;;;;;;;;22.20;99.90;;;;;;5031412;28;19921;-60
2024/03/20 11:35:17;;;;;;;;;;;22.00;99.90;;;;;;5039531;28;20257;-59
2024/03/20 11:37:43;;;;;;;;;;;21.80;99.90;;;;;;5047136;28;19924;-61
2024/03/20 11:40:10;;;;;;;;;;;21.60;99.90;;;;;;5019564;28;19917;-59
2024/03/20 11:42:36;;;;;;;;;;;21.30;99.90;;;;;;5040636;28;19913;-59
2024/03/20 11:45:01;;;;;;;;;;;21.40;99.90;;;;;;5039183;28;19971;-60
2024/03/20 11:47:27;;;;;;;;;;;21.70;99.90;;;;;;5039592;28;20015;-63
2024/03/20 11:49:55;;;;;;;;;;;21.80;99.90;;;;;;5050598;28;19916;-61
2024/03/20 11:52:23;;;;;;;;;;;22.00;99.90;;;;;;5033967;28;20355;-61
2024/03/20 11:54:48;;;;;;;;;;;22.00;99.90;;;;;;5034914;28;19962;-60
2024/03/20 11:57:15;;;;;;;;;;;21.80;99.90;;;;;;5034977;28;19917;-61
2024/03/20 11:59:54;;;;;;;;;;;21.30;99.90;;;;;;5030245;28;19952;-61
2024/03/20 12:02:21;;;;;;;;;;;20.50;99.90;;;;;;5030459;28;20397;-61
2024/03/20 12:04:47;;;;;;;;;;;20.50;99.90;;;;;;5034511;28;20011;-61
2024/03/20 12:07:25;;;;;;;;;;;20.70;99.90;;;;;;5035141;28;20467;-62
2024/03/20 12:09:50;;;;;;;;;;;20.90;99.90;;;;;;5038773;28;20285;-61
2024/03/20 12:12:16;;;;;;;;;;;21.20;99.90;;;;;;5030423;28;19923;-61
2024/03/20 12:14:43;;;;;;;;;;;21.50;99.90;;;;;;5038575;28;19959;-62
2024/03/20 12:17:11;;;;;;;;;;;21.70;99.90;;;;;;5030244;28;20012;-61
2024/03/20 12:19:36;;;;;;;;;;;21.40;99.90;;;;;;5029699;28;19916;-61
2024/03/20 12:22:04;;;;;;;;;;;21.30;99.90;;;;;;5038827;28;19913;-62
2024/03/20 12:24:30;;;;;;;;;;;21.20;99.90;;;;;;5030131;28;19917;-62
2024/03/20 12:26:55;;;;;;;;;;;21.20;99.90;;;;;;5029988;28;19994;-62
2024/03/20 12:29:21;;;;;;;;;;;20.90;99.90;;;;;;5029836;28;19928;-62
2024/03/20 12:31:46;;;;;;;;;;;20.60;99.90;;;;;;5029991;28;19921;-61
2024/03/20 12:34:12;;;;;;;;;;;20.80;99.90;;;;;;5038178;28;19917;-61
2024/03/20 12:36:38;;;;;;;;;;;21.20;99.90;;;;;;5031807;28;20369;-62
2024/03/20 12:39:05;;;;;;;;;;;21.50;99.90;;;;;;5041249;28;19942;-61
2024/03/20 12:41:30;;;;;;;;;;;21.50;99.90;;;;;;5032067;28;19957;-60
2024/03/20 12:43:57;;;;;;;;;;;21.30;99.90;;;;;;5038418;28;19959;-61
2024/03/20 12:46:22;;;;;;;;;;;21.30;99.90;;;;;;5045662;28;20441;-61
2024/03/20 12:48:48;;;;;;;;;;;21.40;99.90;;;;;;5029022;28;20121;-61
2024/03/20 12:51:17;;;;;;;;;;;21.40;99.90;;;;;;5045515;28;20434;-61
2024/03/20 12:53:43;;;;;;;;;;;21.70;99.90;;;;;;5049476;28;19913;-62
2024/03/20 12:56:09;;;;;;;;;;;21.80;99.90;;;;;;5034777;28;19909;-61
2024/03/20 12:58:34;;;;;;;;;;;21.90;99.90;;;;;;5037146;28;20222;-62
2024/03/20 13:01:00;;;;;;;;;;;22.20;99.90;;;;;;5029736;28;19917;-62
2024/03/20 13:03:26;;;;;;;;;;;22.40;99.90;;;;;;5037466;28;19917;-60
2024/03/20 13:05:52;;;;;;;;;;;22.70;99.90;;;;;;5033851;28;19919;-61
2024/03/20 13:08:22;;;;;;;;;;;23.00;99.90;;;;;;5032831;28;19947;-60
2024/03/20 13:10:47;;;;;;;;;;;23.10;99.90;;;;;;5041301;28;19909;-60
2024/03/20 13:13:19;;;;;;;;;;;23.20;99.90;;;;;;5033478;28;19913;-61
2024/03/20 13:15:45;;;;;;;;;;;22.40;99.90;;;;;;5037225;28;19917;-60
2024/03/20 13:18:23;;;;;;;;;;;21.90;99.90;;;;;;5028708;28;19944;-61
2024/03/20 13:20:49;;;;;;;;;;;22.00;99.90;;;;;;5025357;28;20009;-60
2024/03/20 13:23:18;;;;;;;;;;;22.10;99.90;;;;;;5042086;28;20007;-62
2024/03/20 13:25:43;;;;;;;;;;;22.10;99.90;;;;;;5036733;28;20003;-61
2024/03/20 13:28:12;;;;;;;;;;;22.30;99.90;;;;;;5028364;28;19917;-61
2024/03/20 13:30:41;;;;;;;;;;;22.30;99.90;;;;;;5029273;28;19919;-61
2024/03/20 13:33:07;;;;;;;;;;;22.40;99.90;;;;;;5029235;28;20227;-61
2024/03/20 13:35:33;;;;;;;;;;;22.20;99.90;;;;;;5037321;28;19962;-61
2024/03/20 13:38:08;;;;;;;;;;;22.20;99.90;;;;;;5028943;28;19963;-60
2024/03/20 13:40:36;;;;;;;;;;;22.00;99.90;;;;;;5037061;28;20465;-59
2024/03/20 13:45:56;;;;;;;;;;;22.10;99.90;;;;;;5037133;28;20023;-59
2024/03/20 13:48:21;;;;;;;;;;;22.30;99.90;;;;;;5028157;28;19962;-61
2024/03/20 13:50:48;;;;;;;;;;;22.80;99.90;;;;;;5032613;28;20380;-61
2024/03/20 13:53:13;;;;;;;;;;;22.80;99.90;;;;;;5033955;28;19913;-61
2024/03/20 13:55:38;;;;;;;;;;;22.80;99.90;;;;;;5036809;28;19971;-61
2024/03/20 13:58:04;;;;;;;;;;;22.80;99.90;;;;;;5028161;28;20373;-61
2024/03/20 14:00:30;;;;;;;;;;;22.70;99.90;;;;;;5029847;28;19909;-61
2024/03/20 14:02:56;;;;;;;;;;;22.80;99.90;;;;;;5040333;28;20008;-59
2024/03/20 14:05:21;;;;;;;;;;;22.80;99.90;;;;;;5032181;28;19963;-60
2024/03/20 14:07:47;;;;;;;;;;;22.70;99.90;;;;;;5028293;28;19944;-60
2024/03/20 14:10:16;;;;;;;;;;;22.60;99.90;;;;;;5043422;28;19913;-64
2024/03/20 14:12:42;;;;;;;;;;;22.50;99.90;;;;;;5029175;28;19940;-59
2024/03/20 14:15:15;;;;;;;;;;;22.60;99.90;;;;;;5027188;28;20291;-59
2024/03/20 14:17:40;;;;;;;;;;;22.50;99.90;;;;;;5036307;28;19921;-60
2024/03/20 14:20:15;;;;;;;;;;;22.30;99.90;;;;;;5028191;28;19920;-60